sensor_id;sensor_type;location;lat;lon;timestamp;pressure;altitude;pressure_sealevel;temperature;humidity
51759;BME280;66684;47.568;18.734;2023-08-17T00:00:06;99743.59;;;20.27;100.00
51759;BME280;66684;47.568;18.734;2023-08-17T00:02:35;99743.56;;;20.30;100.00
51759;BME280;66684;47.568;18.734;2023-08-17T00:05:01;99738.31;;;20.22;100.00
51759;BME280;66684;47.568;18.734;2023-08-17T00:07:27;99733.09;;;20.28;100.00
51759;BME280;66684;47.568;18.734;2023-08-17T00:09:53;99733.06;;;20.20;100.00
51759;BME280;66684;47.568;18.734;2023-08-17T00:12:19;99728.72;;;20.26;100.00
51759;BME280;66684;47.568;18.734;2023-08-17T00:14:45;99722.59;;;20.27;100.00
51759;BME280;66684;47.568;18.734;2023-08-17T00:17:10;99726.13;;;20.30;100.00
51759;BME280;66684;47.568;18.734;2023-08-17T00:19:36;99726.00;;;20.07;100.00
51759;BME280;66684;47.568;18.734;2023-08-17T00:22:02;99725.13;;;20.04;100.00
51759;BME280;66684;47.568;18.734;2023-08-17T00:24:29;99717.16;;;19.82;100.00
51759;BME280;66684;47.568;18.734;2023-08-17T00:26:55;99714.59;;;19.98;100.00
51759;BME280;66684;47.568;18.734;2023-08-17T00:29:21;99707.62;;;20.03;100.00
51759;BME280;66684;47.568;18.734;2023-08-17T00:31:47;99712.00;;;19.99;100.00
51759;BME280;66684;47.568;18.734;2023-08-17T00:34:13;99715.53;;;20.07;100.00
51759;BME280;66684;47.568;18.734;2023-08-17T00:36:39;99718.16;;;20.12;100.00
51759;BME280;66684;47.568;18.734;2023-08-17T00:39:05;99717.28;;;20.05;100.00
51759;BME280;66684;47.568;18.734;2023-08-17T00:41:30;99713.81;;;20.12;100.00
51759;BME280;66684;47.568;18.734;2023-08-17T00:43:57;99712.94;;;20.18;100.00
51759;BME280;66684;47.568;18.734;2023-08-17T00:46:23;99717.28;;;20.07;100.00
51759;BME280;66684;47.568;18.734;2023-08-17T00:48:49;99709.19;;;19.67;100.00
51759;BME280;66684;47.568;18.734;2023-08-17T00:51:16;99716.03;;;19.47;100.00
51759;BME280;66684;47.568;18.734;2023-08-17T00:53:42;99712.75;;;19.78;100.00
51759;BME280;66684;47.568;18.734;2023-08-17T00:56:08;99711.06;;;19.86;100.00
51759;BME280;66684;47.568;18.734;2023-08-17T00:58:34;99710.16;;;19.86;100.00
51759;BME280;66684;47.568;18.734;2023-08-17T01:01:01;99714.56;;;19.88;100.00
51759;BME280;66684;47.568;18.734;2023-08-17T01:03:28;99714.53;;;19.82;100.00
51759;BME280;66684;47.568;18.734;2023-08-17T01:05:56;99716.28;;;19.80;100.00
51759;BME280;66684;47.568;18.734;2023-08-17T01:08:23;99711.91;;;19.84;100.00
51759;BME280;66684;47.568;18.734;2023-08-17T01:11:02;99718.13;;;20.03;100.00
51759;BME280;66684;47.568;18.734;2023-08-17T01:13:38;99729.47;;;19.99;100.00
51759;BME280;66684;47.568;18.734;2023-08-17T01:16:12;99730.16;;;19.67;100.00
51759;BME280;66684;47.568;18.734;2023-08-17T01:18:41;99732.81;;;19.72;100.00
51759;BME280;66684;47.568;18.734;2023-08-17T01:21:10;99731.09;;;19.74;100.00
51759;BME280;66684;47.568;18.734;2023-08-17T01:23:37;99724.22;;;19.96;100.00
51759;BME280;66684;47.568;18.734;2023-08-17T01:26:03;99726.84;;;19.99;100.00
51759;BME280;66684;47.568;18.734;2023-08-17T01:28:29;99726.84;;;19.99;100.00
51759;BME280;66684;47.568;18.734;2023-08-17T01:30:58;99723.34;;;19.97;100.00
51759;BME280;66684;47.568;18.734;2023-08-17T01:33:35;99726.87;;;20.08;100.00
51759;BME280;66684;47.568;18.734;2023-08-17T01:36:32;99718.84;;;19.73;100.00
51759;BME280;66684;47.568;18.734;2023-08-17T01:39:00;99714.50;;;19.78;100.00
51759;BME280;66684;47.568;18.734;2023-08-17T01:41:27;99716.31;;;19.86;100.00
51759;BME280;66684;47.568;18.734;2023-08-17T01:43:53;99718.03;;;19.84;100.00
51759;BME280;66684;47.568;18.734;2023-08-17T01:46:20;99718.03;;;19.84;100.00
51759;BME280;66684;47.568;18.734;2023-08-17T01:48:46;99717.19;;;19.88;100.00
51759;BME280;66684;47.568;18.734;2023-08-17T01:51:18;99720.63;;;19.80;100.00
51759;BME280;66684;47.568;18.734;2023-08-17T01:53:47;99714.38;;;19.56;100.00
51759;BME280;66684;47.568;18.734;2023-08-17T01:56:13;99716.06;;;19.50;100.00
51759;BME280;66684;47.568;18.734;2023-08-17T01:58:39;99714.31;;;19.49;100.00
51759;BME280;66684;47.568;18.734;2023-08-17T02:01:05;99714.25;;;19.39;100.00
51759;BME280;66684;47.568;18.734;2023-08-17T02:03:31;99712.22;;;19.02;100.00
51759;BME280;66684;47.568;18.734;2023-08-17T02:06:01;99713.00;;;18.92;100.00
51759;BME280;66684;47.568;18.734;2023-08-17T02:08:27;99714.94;;;19.12;100.00
51759;BME280;66684;47.568;18.734;2023-08-17T02:10:53;99721.06;;;19.16;100.00
51759;BME280;66684;47.568;18.734;2023-08-17T02:13:19;99717.53;;;19.11;100.00
51759;BME280;66684;47.568;18.734;2023-08-17T02:15:46;99720.19;;;19.14;100.00
51759;BME280;66684;47.568;18.734;2023-08-17T02:18:12;99720.19;;;19.14;100.00
51759;BME280;66684;47.568;18.734;2023-08-17T02:20:38;99726.28;;;19.16;100.00
51759;BME280;66684;47.568;18.734;2023-08-17T02:23:04;99727.94;;;19.00;100.00
51759;BME280;66684;47.568;18.734;2023-08-17T02:25:30;99724.59;;;19.21;100.00
51759;BME280;66684;47.568;18.734;2023-08-17T02:28:01;99720.22;;;19.22;100.00
51759;BME280;66684;47.568;18.734;2023-08-17T02:30:28;99714.06;;;19.12;100.00
51759;BME280;66684;47.568;18.734;2023-08-17T02:32:54;99727.16;;;19.13;100.00
51759;BME280;66684;47.568;18.734;2023-08-17T02:35:20;99716.72;;;19.20;100.00
51759;BME280;66684;47.568;18.734;2023-08-17T02:37:46;99723.62;;;19.05;100.00
51759;BME280;66684;47.568;18.734;2023-08-17T02:40:12;99715.56;;;18.85;100.00
51759;BME280;66684;47.568;18.734;2023-08-17T02:42:38;99720.13;;;19.09;100.00
51759;BME280;66684;47.568;18.734;2023-08-17T02:45:06;99724.53;;;19.12;100.00
51759;BME280;66684;47.568;18.734;2023-08-17T02:47:32;99730.66;;;19.12;100.00
51759;BME280;66684;47.568;18.734;2023-08-17T02:49:58;99731.63;;;19.25;100.00
51759;BME280;66684;47.568;18.734;2023-08-17T02:52:24;99729.88;;;19.26;100.00
51759;BME280;66684;47.568;18.734;2023-08-17T02:54:50;99723.81;;;19.30;100.00
51759;BME280;66684;47.568;18.734;2023-08-17T02:57:16;99731.59;;;19.22;100.00
51759;BME280;66684;47.568;18.734;2023-08-17T02:59:44;99730.00;;;19.43;100.00
51759;BME280;66684;47.568;18.734;2023-08-17T03:02:09;99731.81;;;19.53;100.00
51759;BME280;66684;47.568;18.734;2023-08-17T03:04:35;99723.97;;;19.57;100.00
51759;BME280;66684;47.568;18.734;2023-08-17T03:07:01;99716.28;;;19.80;100.00
51759;BME280;66684;47.568;18.734;2023-08-17T03:09:27;99718.06;;;19.87;100.00
51759;BME280;66684;47.568;18.734;2023-08-17T03:11:53;99712.78;;;19.84;100.00
51759;BME280;66684;47.568;18.734;2023-08-17T03:14:19;99707.53;;;19.81;100.00
51759;BME280;66684;47.568;18.734;2023-08-17T03:16:45;99707.53;;;19.84;100.00
51759;BME280;66684;47.568;18.734;2023-08-17T03:19:11;99712.78;;;19.86;100.00
51759;BME280;66684;47.568;18.734;2023-08-17T03:21:37;99704.91;;;19.83;100.00
51759;BME280;66684;47.568;18.734;2023-08-17T03:24:04;99711.87;;;19.76;100.00
51759;BME280;66684;47.568;18.734;2023-08-17T03:26:30;99710.13;;;19.77;100.00
51759;BME280;66684;47.568;18.734;2023-08-17T03:28:55;99714.50;;;19.79;100.00
51759;BME280;66684;47.568;18.734;2023-08-17T03:31:21;99708.44;;;19.88;100.00
51759;BME280;66684;47.568;18.734;2023-08-17T03:33:48;99709.28;;;19.82;100.00
51759;BME280;66684;47.568;18.734;2023-08-17T03:36:14;99710.13;;;19.74;100.00
51759;BME280;66684;47.568;18.734;2023-08-17T03:38:39;99713.63;;;19.77;100.00
51759;BME280;66684;47.568;18.734;2023-08-17T03:41:06;99714.41;;;19.61;100.00
51759;BME280;66684;47.568;18.734;2023-08-17T03:43:32;99713.63;;;19.74;100.00
51759;BME280;66684;47.568;18.734;2023-08-17T03:45:58;99717.19;;;19.90;100.00
51759;BME280;66684;47.568;18.734;2023-08-17T03:48:24;99715.41;;;19.86;100.00
51759;BME280;66684;47.568;18.734;2023-08-17T03:50:52;99723.34;;;19.95;100.00
51759;BME280;66684;47.568;18.734;2023-08-17T03:53:18;99720.69;;;19.92;100.00
51759;BME280;66684;47.568;18.734;2023-08-17T03:55:48;99718.94;;;19.86;100.00
51759;BME280;66684;47.568;18.734;2023-08-17T03:58:15;99723.31;;;19.90;100.00
51759;BME280;66684;47.568;18.734;2023-08-17T04:00:41;99719.66;;;19.61;100.00
51759;BME280;66684;47.568;18.734;2023-08-17T04:03:08;99719.47;;;19.36;100.00
51759;BME280;66684;47.568;18.734;2023-08-17T04:05:33;99714.38;;;19.55;100.00
51759;BME280;66684;47.568;18.734;2023-08-17T04:08:02;99723.16;;;19.63;100.00
51759;BME280;66684;47.568;18.734;2023-08-17T04:10:29;99712.75;;;19.74;100.00
51759;BME280;66684;47.568;18.734;2023-08-17T04:12:56;99718.87;;;19.76;100.00
51759;BME280;66684;47.568;18.734;2023-08-17T04:15:22;99712.66;;;19.60;100.00
51759;BME280;66684;47.568;18.734;2023-08-17T04:17:48;99714.47;;;19.69;100.00
51759;BME280;66684;47.568;18.734;2023-08-17T04:20:14;99707.53;;;19.84;100.00
51759;BME280;66684;47.568;18.734;2023-08-17T04:22:40;99712.78;;;19.84;100.00
51759;BME280;66684;47.568;18.734;2023-08-17T04:25:06;99711.72;;;19.53;100.00
51759;BME280;66684;47.568;18.734;2023-08-17T04:27:33;99719.78;;;19.82;100.00
51759;BME280;66684;47.568;18.734;2023-08-17T04:30:00;99722.44;;;19.88;100.00
51759;BME280;66684;47.568;18.734;2023-08-17T04:32:26;99724.25;;;20.00;100.00
51759;BME280;66684;47.568;18.734;2023-08-17T04:34:52;99725.09;;;19.94;100.00
51759;BME280;66684;47.568;18.734;2023-08-17T04:37:18;99728.59;;;19.97;100.00
51759;BME280;66684;47.568;18.734;2023-08-17T04:39:43;99726.87;;;20.08;100.00
51759;BME280;66684;47.568;18.734;2023-08-17T04:42:09;99712.94;;;20.18;100.00
51759;BME280;66684;47.568;18.734;2023-08-17T04:44:36;99712.97;;;20.27;100.00
51759;BME280;66684;47.568;18.734;2023-08-17T04:47:02;99713.84;;;20.29;100.00
51759;BME280;66684;47.568;18.734;2023-08-17T04:49:28;99720.84;;;20.32;100.00
51759;BME280;66684;47.568;18.734;2023-08-17T04:51:54;99718.25;;;20.30;100.00
51759;BME280;66684;47.568;18.734;2023-08-17T04:54:19;99714.75;;;20.37;100.00
51759;BME280;66684;47.568;18.734;2023-08-17T04:56:45;99728.72;;;20.36;100.00
51759;BME280;66684;47.568;18.734;2023-08-17T04:59:11;99722.59;;;20.33;100.00
51759;BME280;66684;47.568;18.734;2023-08-17T05:01:37;99720.00;;;20.37;100.00
51759;BME280;66684;47.568;18.734;2023-08-17T05:04:04;99725.16;;;20.13;100.00
51759;BME280;66684;47.568;18.734;2023-08-17T05:06:30;99735.59;;;20.01;100.00
51759;BME280;66684;47.568;18.734;2023-08-17T05:08:57;99726.09;;;20.24;100.00
51759;BME280;66684;47.568;18.734;2023-08-17T05:11:23;99731.34;;;20.29;100.00
51759;BME280;66684;47.568;18.734;2023-08-17T05:13:49;99735.63;;;20.07;100.00
51759;BME280;66684;47.568;18.734;2023-08-17T05:16:15;99732.94;;;19.90;100.00
51759;BME280;66684;47.568;18.734;2023-08-17T05:18:40;99734.69;;;19.88;100.00
51759;BME280;66684;47.568;18.734;2023-08-17T05:21:06;99734.69;;;19.86;100.00
51759;BME280;66684;47.568;18.734;2023-08-17T05:23:32;99729.53;;;20.14;100.00
51759;BME280;66684;47.568;18.734;2023-08-17T05:25:58;99722.59;;;20.34;100.00
51759;BME280;66684;47.568;18.734;2023-08-17T05:28:24;99724.41;;;20.43;100.00
51759;BME280;66684;47.568;18.734;2023-08-17T05:30:50;99724.44;;;20.60;100.00
51759;BME280;66684;47.568;18.734;2023-08-17T05:33:16;99719.22;;;20.66;100.00
51759;BME280;66684;47.568;18.734;2023-08-17T05:35:42;99716.59;;;20.72;100.00
51759;BME280;66684;47.568;18.734;2023-08-17T05:38:08;99723.59;;;20.79;100.00
51759;BME280;66684;47.568;18.734;2023-08-17T05:40:35;99723.62;;;20.82;100.00
51759;BME280;66684;47.568;18.734;2023-08-17T05:43:02;99718.34;;;20.76;100.00
51759;BME280;66684;47.568;18.734;2023-08-17T05:45:27;99714.81;;;20.53;100.00
51759;BME280;66684;47.568;18.734;2023-08-17T05:47:53;99710.41;;;20.47;100.00
51759;BME280;66684;47.568;18.734;2023-08-17T05:50:19;99722.69;;;20.60;100.00
51759;BME280;66684;47.568;18.734;2023-08-17T05:52:45;99724.50;;;20.84;100.00
51759;BME280;66684;47.568;18.734;2023-08-17T05:55:11;99727.13;;;20.96;100.00
51759;BME280;66684;47.568;18.734;2023-08-17T05:57:37;99726.25;;;20.96;100.00
51759;BME280;66684;47.568;18.734;2023-08-17T06:00:03;99729.75;;;21.04;100.00
51759;BME280;66684;47.568;18.734;2023-08-17T06:02:29;99732.38;;;21.21;100.00
51759;BME280;66684;47.568;18.734;2023-08-17T06:04:55;99734.16;;;21.34;100.00
51759;BME280;66684;47.568;18.734;2023-08-17T06:07:21;99737.66;;;21.33;100.00
51759;BME280;66684;47.568;18.734;2023-08-17T06:09:47;99742.03;;;21.46;100.00
51759;BME280;66684;47.568;18.734;2023-08-17T06:12:13;99735.91;;;21.35;100.00
51759;BME280;66684;47.568;18.734;2023-08-17T06:14:39;99735.88;;;21.47;100.00
51759;BME280;66684;47.568;18.734;2023-08-17T06:17:05;99739.38;;;21.43;100.00
51759;BME280;66684;47.568;18.734;2023-08-17T06:19:30;99737.66;;;21.39;100.00
51759;BME280;66684;47.568;18.734;2023-08-17T06:21:56;99735.00;;;21.24;100.00
51759;BME280;66684;47.568;18.734;2023-08-17T06:24:22;99740.28;;;21.33;100.00
51759;BME280;66684;47.568;18.734;2023-08-17T06:26:48;99723.66;;;21.37;100.00
51759;BME280;66684;47.568;18.734;2023-08-17T06:29:14;99732.38;;;21.58;100.00
51759;BME280;66684;47.568;18.734;2023-08-17T06:31:40;99729.72;;;21.61;100.00
51759;BME280;66684;47.568;18.734;2023-08-17T06:34:06;99723.59;;;21.55;100.00
51759;BME280;66684;47.568;18.734;2023-08-17T06:36:32;99726.22;;;21.75;100.00
51759;BME280;66684;47.568;18.734;2023-08-17T06:38:59;99717.38;;;21.86;100.00
51759;BME280;66684;47.568;18.734;2023-08-17T06:41:25;99723.47;;;22.14;100.00
51759;BME280;66684;47.568;18.734;2023-08-17T06:43:51;99725.09;;;22.36;100.00
51759;BME280;66684;47.568;18.734;2023-08-17T06:46:17;99724.13;;;22.54;100.00
51759;BME280;66684;47.568;18.734;2023-08-17T06:48:43;99729.22;;;22.80;100.00
51759;BME280;66684;47.568;18.734;2023-08-17T06:51:09;99727.34;;;23.00;100.00
51759;BME280;66684;47.568;18.734;2023-08-17T06:53:35;99735.09;;;23.19;100.00
51759;BME280;66684;47.568;18.734;2023-08-17T06:56:01;99737.59;;;23.38;100.00
51759;BME280;66684;47.568;18.734;2023-08-17T06:58:27;99738.44;;;23.37;100.00
51759;BME280;66684;47.568;18.734;2023-08-17T07:00:53;99738.41;;;23.42;100.00
51759;BME280;66684;47.568;18.734;2023-08-17T07:03:18;99734.87;;;23.46;100.00
51759;BME280;66684;47.568;18.734;2023-08-17T07:05:46;99735.69;;;23.50;100.00
51759;BME280;66684;47.568;18.734;2023-08-17T07:08:12;99734.75;;;23.55;100.00
51759;BME280;66684;47.568;18.734;2023-08-17T07:10:39;99742.66;;;23.61;100.00
51759;BME280;66684;47.568;18.734;2023-08-17T07:13:05;99738.19;;;23.66;100.00
51759;BME280;66684;47.568;18.734;2023-08-17T07:15:31;99736.44;;;23.67;100.00
51759;BME280;66684;47.568;18.734;2023-08-17T07:17:57;99727.59;;;23.69;100.00
51759;BME280;66684;47.568;18.734;2023-08-17T07:20:23;99722.25;;;23.79;100.00
51759;BME280;66684;47.568;18.734;2023-08-17T07:22:49;99716.91;;;23.82;100.00
51759;BME280;66684;47.568;18.734;2023-08-17T07:25:15;99713.53;;;23.71;100.00
51759;BME280;66684;47.568;18.734;2023-08-17T07:27:41;99718.47;;;24.01;98.77
51759;BME280;66684;47.568;18.734;2023-08-17T07:30:08;99716.63;;;24.06;98.13
51759;BME280;66684;47.568;18.734;2023-08-17T07:32:34;99707.56;;;24.26;96.66
51759;BME280;66684;47.568;18.734;2023-08-17T07:35:00;99709.16;;;24.42;94.82
51759;BME280;66684;47.568;18.734;2023-08-17T07:37:26;99703.94;;;24.39;93.71
51759;BME280;66684;47.568;18.734;2023-08-17T07:39:59;99709.06;;;24.48;94.50
51759;BME280;66684;47.568;18.734;2023-08-17T07:42:25;99722.03;;;24.63;92.98
51759;BME280;66684;47.568;18.734;2023-08-17T07:44:50;99723.62;;;24.77;93.85
51759;BME280;66684;47.568;18.734;2023-08-17T07:47:16;99723.22;;;25.02;91.15
51759;BME280;66684;47.568;18.734;2023-08-17T07:49:42;99719.81;;;24.94;88.57
51759;BME280;66684;47.568;18.734;2023-08-17T07:52:08;99733.22;;;24.84;86.85
51759;BME280;66684;47.568;18.734;2023-08-17T07:54:34;99736.63;;;24.89;89.36
51759;BME280;66684;47.568;18.734;2023-08-17T07:57:00;99735.66;;;24.94;85.39
51759;BME280;66684;47.568;18.734;2023-08-17T07:59:26;99729.47;;;24.97;88.37
51759;BME280;66684;47.568;18.734;2023-08-17T08:01:52;99727.66;;;24.99;88.70
51759;BME280;66684;47.568;18.734;2023-08-17T08:04:18;99727.44;;;25.16;91.18
51759;BME280;66684;47.568;18.734;2023-08-17T08:06:44;99720.09;;;25.32;87.29
51759;BME280;66684;47.568;18.734;2023-08-17T08:09:10;99718.63;;;25.14;90.14
51759;BME280;66684;47.568;18.734;2023-08-17T08:11:36;99716.72;;;25.23;90.32
51759;BME280;66684;47.568;18.734;2023-08-17T08:14:01;99722.22;;;25.11;87.50
51759;BME280;66684;47.568;18.734;2023-08-17T08:16:28;99723.91;;;25.15;87.37
51759;BME280;66684;47.568;18.734;2023-08-17T08:18:56;99722.19;;;25.14;88.24
51759;BME280;66684;47.568;18.734;2023-08-17T08:21:22;99725.75;;;25.10;89.99
51759;BME280;66684;47.568;18.734;2023-08-17T08:23:48;99729.41;;;25.00;90.38
51759;BME280;66684;47.568;18.734;2023-08-17T08:26:14;99711.69;;;25.08;87.83
51759;BME280;66684;47.568;18.734;2023-08-17T08:28:40;99720.47;;;25.10;86.71
51759;BME280;66684;47.568;18.734;2023-08-17T08:31:06;99720.47;;;25.10;86.96
51759;BME280;66684;47.568;18.734;2023-08-17T08:33:32;99725.69;;;25.13;87.46
51759;BME280;66684;47.568;18.734;2023-08-17T08:35:57;99721.38;;;25.08;90.49
51759;BME280;66684;47.568;18.734;2023-08-17T08:38:24;99729.38;;;25.03;90.38
51759;BME280;66684;47.568;18.734;2023-08-17T08:40:50;99730.22;;;25.07;89.34
51759;BME280;66684;47.568;18.734;2023-08-17T08:43:17;99729.34;;;25.06;89.05
51759;BME280;66684;47.568;18.734;2023-08-17T08:45:43;99730.25;;;25.05;89.96
51759;BME280;66684;47.568;18.734;2023-08-17T08:48:13;99724.03;;;25.09;89.85
51759;BME280;66684;47.568;18.734;2023-08-17T08:50:40;99725.44;;;25.28;88.00
51759;BME280;66684;47.568;18.734;2023-08-17T08:53:13;99731.16;;;25.01;88.19
51759;BME280;66684;47.568;18.734;2023-08-17T08:55:59;99729.09;;;25.20;89.87
51759;BME280;66684;47.568;18.734;2023-08-17T08:58:27;99730.88;;;25.19;86.71
51759;BME280;66684;47.568;18.734;2023-08-17T09:00:54;99736.88;;;25.31;86.69
51759;BME280;66684;47.568;18.734;2023-08-17T09:03:23;99746.19;;;25.53;87.19
51759;BME280;66684;47.568;18.734;2023-08-17T09:05:50;99740.03;;;25.51;87.47
51759;BME280;66684;47.568;18.734;2023-08-17T09:08:27;99736.41;;;25.56;88.19
51759;BME280;66684;47.568;18.734;2023-08-17T09:10:53;99732.72;;;25.65;86.87
51759;BME280;66684;47.568;18.734;2023-08-17T09:13:19;99732.22;;;25.43;87.03
51759;BME280;66684;47.568;18.734;2023-08-17T09:15:45;99727.09;;;25.36;86.50
51759;BME280;66684;47.568;18.734;2023-08-17T09:18:11;99726.97;;;25.42;88.05
51759;BME280;66684;47.568;18.734;2023-08-17T09:20:41;99730.31;;;25.53;86.77
51759;BME280;66684;47.568;18.734;2023-08-17T09:23:18;99725.34;;;25.35;86.20
51759;BME280;66684;47.568;18.734;2023-08-17T09:25:46;99721.50;;;25.51;87.49
51759;BME280;66684;47.568;18.734;2023-08-17T09:28:14;99721.84;;;25.33;87.36
51759;BME280;66684;47.568;18.734;2023-08-17T09:30:53;99718.22;;;25.40;88.09
51759;BME280;66684;47.568;18.734;2023-08-17T09:33:23;99712.91;;;25.40;84.09
51759;BME280;66684;47.568;18.734;2023-08-17T09:35:51;99707.31;;;25.55;85.07
51759;BME280;66684;47.568;18.734;2023-08-17T09:38:18;99716.16;;;25.54;84.73
51759;BME280;66684;47.568;18.734;2023-08-17T09:40:45;99708.00;;;25.66;83.07
51759;BME280;66684;47.568;18.734;2023-08-17T09:43:11;99708.59;;;25.84;79.74
51759;BME280;66684;47.568;18.734;2023-08-17T09:45:38;99707.03;;;25.70;81.54
51759;BME280;66684;47.568;18.734;2023-08-17T09:48:06;99700.94;;;25.67;82.82
51759;BME280;66684;47.568;18.734;2023-08-17T09:50:33;99704.22;;;25.81;83.62
51759;BME280;66684;47.568;18.734;2023-08-17T09:52:58;99695.50;;;25.74;81.86
51759;BME280;66684;47.568;18.734;2023-08-17T09:55:24;99690.94;;;25.84;82.21
51759;BME280;66684;47.568;18.734;2023-08-17T09:57:51;99693.44;;;25.90;82.80
51759;BME280;66684;47.568;18.734;2023-08-17T12:00:41;99668.25;;;27.57;73.02
51759;BME280;66684;47.568;18.734;2023-08-17T12:03:08;99662.66;;;27.36;74.39
51759;BME280;66684;47.568;18.734;2023-08-17T12:05:35;99664.53;;;27.31;71.99
51759;BME280;66684;47.568;18.734;2023-08-17T12:08:01;99665.56;;;27.26;72.19
51759;BME280;66684;47.568;18.734;2023-08-17T12:10:33;99665.72;;;27.54;73.26
51759;BME280;66684;47.568;18.734;2023-08-17T12:13:00;99659.34;;;27.90;70.12
51759;BME280;66684;47.568;18.734;2023-08-17T12:15:33;99659.06;;;27.70;70.21
51759;BME280;66684;47.568;18.734;2023-08-17T12:18:01;99651.59;;;27.52;71.03
51759;BME280;66684;47.568;18.734;2023-08-17T12:20:27;99654.03;;;27.59;70.50
51759;BME280;66684;47.568;18.734;2023-08-17T12:22:53;99654.50;;;27.75;72.43
51759;BME280;66684;47.568;18.734;2023-08-17T12:25:23;99647.84;;;27.91;69.08
51759;BME280;66684;47.568;18.734;2023-08-17T12:27:49;99649.59;;;27.92;69.96
51759;BME280;66684;47.568;18.734;2023-08-17T12:30:29;99644.84;;;28.04;69.20
51759;BME280;66684;47.568;18.734;2023-08-17T12:32:57;99634.72;;;28.44;69.03
51759;BME280;66684;47.568;18.734;2023-08-17T12:35:23;99643.63;;;28.43;67.29
51759;BME280;66684;47.568;18.734;2023-08-17T12:37:51;99631.53;;;28.33;65.85
51759;BME280;66684;47.568;18.734;2023-08-17T12:40:17;99629.78;;;28.32;68.00
51759;BME280;66684;47.568;18.734;2023-08-17T12:42:43;99625.88;;;28.14;65.81
51759;BME280;66684;47.568;18.734;2023-08-17T12:45:09;99617.44;;;28.31;66.86
51759;BME280;66684;47.568;18.734;2023-08-17T12:47:35;99623.31;;;28.41;67.10
51759;BME280;66684;47.568;18.734;2023-08-17T12:50:01;99613.56;;;28.41;66.46
51759;BME280;66684;47.568;18.734;2023-08-17T12:52:29;99616.06;;;28.46;66.16
51759;BME280;66684;47.568;18.734;2023-08-17T12:54:55;99604.25;;;28.81;66.54
51759;BME280;66684;47.568;18.734;2023-08-17T12:57:21;99601.22;;;28.93;64.62
51759;BME280;66684;47.568;18.734;2023-08-17T12:59:47;99593.84;;;29.01;64.15
51759;BME280;66684;47.568;18.734;2023-08-17T13:02:12;99589.09;;;29.10;62.85
51759;BME280;66684;47.568;18.734;2023-08-17T13:04:39;99588.19;;;28.58;63.52
51759;BME280;66684;47.568;18.734;2023-08-17T13:07:05;99593.31;;;28.64;67.35
51759;BME280;66684;47.568;18.734;2023-08-17T13:09:31;99590.31;;;28.74;64.02
51759;BME280;66684;47.568;18.734;2023-08-17T13:11:57;99583.97;;;29.30;66.01
51759;BME280;66684;47.568;18.734;2023-08-17T13:14:23;99580.31;;;29.08;62.11
51759;BME280;66684;47.568;18.734;2023-08-17T13:16:49;99582.87;;;28.84;63.01
51759;BME280;66684;47.568;18.734;2023-08-17T13:19:15;99580.03;;;29.15;62.85
51759;BME280;66684;47.568;18.734;2023-08-17T13:21:41;99580.59;;;29.25;62.33
51759;BME280;66684;47.568;18.734;2023-08-17T13:24:07;99577.78;;;29.53;61.49
51759;BME280;66684;47.568;18.734;2023-08-17T13:26:34;99576.00;;;29.28;62.24
51759;BME280;66684;47.568;18.734;2023-08-17T13:29:00;99567.44;;;29.20;62.57
51759;BME280;66684;47.568;18.734;2023-08-17T13:31:26;99576.00;;;29.03;61.40
51759;BME280;66684;47.568;18.734;2023-08-17T13:33:52;99571.91;;;28.68;62.88
51759;BME280;66684;47.568;18.734;2023-08-17T13:36:18;99576.88;;;28.79;63.86
51759;BME280;66684;47.568;18.734;2023-08-17T13:38:44;99577.06;;;28.73;63.75
51759;BME280;66684;47.568;18.734;2023-08-17T13:41:11;99582.28;;;28.76;65.19
51759;BME280;66684;47.568;18.734;2023-08-17T13:43:37;99576.69;;;28.57;63.30
51759;BME280;66684;47.568;18.734;2023-08-17T13:46:04;99584.31;;;28.68;65.71
51759;BME280;66684;47.568;18.734;2023-08-17T13:48:30;99576.66;;;28.85;63.68
51759;BME280;66684;47.568;18.734;2023-08-17T13:50:56;99574.78;;;28.34;64.49
51759;BME280;66684;47.568;18.734;2023-08-17T13:53:22;99576.06;;;28.21;65.98
51759;BME280;66684;47.568;18.734;2023-08-17T13:55:48;99574.47;;;28.17;66.07
51759;BME280;66684;47.568;18.734;2023-08-17T13:58:14;99573.81;;;28.09;65.09
51759;BME280;66684;47.568;18.734;2023-08-17T14:00:42;99575.75;;;28.04;67.62
51759;BME280;66684;47.568;18.734;2023-08-17T14:03:08;99567.63;;;28.08;66.36
51759;BME280;66684;47.568;18.734;2023-08-17T14:05:34;99571.19;;;27.79;66.41
51759;BME280;66684;47.568;18.734;2023-08-17T14:08:00;99575.09;;;27.66;66.70
51759;BME280;66684;47.568;18.734;2023-08-17T14:10:26;99567.41;;;27.57;66.56
51759;BME280;66684;47.568;18.734;2023-08-17T14:12:52;99568.94;;;27.34;65.99
51759;BME280;66684;47.568;18.734;2023-08-17T14:15:17;99574.06;;;27.40;66.67
51759;BME280;66684;47.568;18.734;2023-08-17T14:17:43;99578.31;;;27.46;68.26
51759;BME280;66684;47.568;18.734;2023-08-17T14:20:10;99574.59;;;27.53;69.11
51759;BME280;66684;47.568;18.734;2023-08-17T14:22:36;99579.75;;;27.58;69.46
51759;BME280;66684;47.568;18.734;2023-08-17T14:25:01;99576.75;;;28.00;69.67
51759;BME280;66684;47.568;18.734;2023-08-17T14:27:29;99568.97;;;28.21;65.00
51759;BME280;66684;47.568;18.734;2023-08-17T14:29:55;99573.22;;;28.27;65.30
51759;BME280;66684;47.568;18.734;2023-08-17T14:32:21;99568.47;;;28.38;65.42
51759;BME280;66684;47.568;18.734;2023-08-17T14:34:47;99563.75;;;28.46;64.47
51759;BME280;66684;47.568;18.734;2023-08-17T14:37:13;99562.22;;;28.39;66.18
51759;BME280;66684;47.568;18.734;2023-08-17T14:39:39;99564.31;;;28.28;65.25